createdAt,value
2018-09-03T00:00:46.502Z,19.80
2018-09-03T00:03:21.126Z,21.20
2018-09-03T00:05:55.636Z,20.70
2018-09-03T00:08:30.377Z,22.20
2018-09-03T00:11:04.867Z,23.13
2018-09-03T00:13:39.624Z,20.13
2018-09-03T00:16:14.234Z,20.87
2018-09-03T00:18:48.803Z,20.30
2018-09-03T00:21:23.722Z,20.47
2018-09-03T00:23:58.352Z,18.83
2018-09-03T00:26:33.019Z,19.40
2018-09-03T00:29:07.479Z,20.33
2018-09-03T00:31:47.458Z,21.27
2018-09-03T00:34:27.490Z,19.60
2018-09-03T00:37:07.515Z,19.30
2018-09-03T00:39:48.010Z,18.00
2018-09-03T00:42:28.167Z,21.40
2018-09-03T00:45:08.218Z,18.50
2018-09-03T00:47:42.786Z,20.43
2018-09-03T00:50:17.426Z,21.03
2018-09-03T00:52:51.884Z,17.77
2018-09-03T00:55:26.575Z,23.43
2018-09-03T00:58:01.199Z,21.30
2018-09-03T01:00:36.174Z,21.10
2018-09-03T01:03:10.670Z,21.00
2018-09-03T01:05:45.312Z,23.43
2018-09-03T01:08:19.989Z,21.13
2018-09-03T01:10:54.661Z,22.40
2018-09-03T01:13:29.341Z,19.63
2018-09-03T01:16:04.170Z,20.37
2018-09-03T01:18:41.988Z,20.97
2018-09-03T01:21:16.727Z,18.13
2018-09-03T01:23:51.230Z,20.90
2018-09-03T01:26:25.733Z,17.70
2018-09-03T01:29:00.250Z,24.83
2018-09-03T01:31:34.927Z,19.80
2018-09-03T01:34:09.386Z,17.60
2018-09-03T01:36:44.321Z,19.20
2018-09-03T01:39:18.889Z,18.50
2018-09-03T01:41:53.679Z,20.17
2018-09-03T01:44:28.122Z,21.67
2018-09-03T01:47:02.594Z,19.47
2018-09-03T01:49:37.172Z,18.83
2018-09-03T01:52:11.866Z,20.53
2018-09-03T01:54:46.386Z,20.83
2018-09-03T01:57:21.301Z,18.30
2018-09-03T01:59:55.919Z,19.50
2018-09-03T02:02:30.621Z,20.87
2018-09-03T02:05:05.506Z,21.23
2018-09-03T02:07:40.279Z,20.83
2018-09-03T02:10:14.895Z,19.07
2018-09-03T02:12:49.651Z,19.40
2018-09-03T02:15:24.259Z,21.50
2018-09-03T02:17:58.798Z,18.93
2018-09-03T02:20:33.453Z,20.60
2018-09-03T02:23:08.142Z,18.50
2018-09-03T02:25:42.638Z,23.20
2018-09-03T02:28:17.305Z,18.53
2018-09-03T02:30:51.794Z,21.30
2018-09-03T02:33:26.445Z,21.50
2018-09-03T02:36:01.146Z,18.13
2018-09-03T02:38:35.782Z,17.27
2018-09-03T02:41:10.278Z,16.93
2018-09-03T02:43:44.924Z,17.77
2018-09-03T02:46:19.547Z,15.90
2018-09-03T02:48:54.030Z,15.67
2018-09-03T02:51:28.530Z,14.43
2018-09-03T02:54:03.336Z,16.53
2018-09-03T02:56:37.834Z,14.40
2018-09-03T02:59:12.529Z,15.00
2018-09-03T03:01:47.257Z,15.27
2018-09-03T03:04:21.922Z,13.57
2018-09-03T03:06:56.527Z,14.00
2018-09-03T03:09:31.053Z,15.57
2018-09-03T03:12:05.555Z,14.47
2018-09-03T03:14:40.382Z,13.73
2018-09-03T03:17:15.038Z,14.30
2018-09-03T03:19:49.884Z,15.10
2018-09-03T03:22:24.413Z,13.87
2018-09-03T03:24:59.164Z,13.30
2018-09-03T03:27:33.620Z,14.13
2018-09-03T03:30:09.135Z,14.70
2018-09-03T03:32:43.718Z,15.20
2018-09-03T03:35:18.467Z,13.80
2018-09-03T03:37:53.319Z,14.03
2018-09-03T03:40:28.028Z,13.73
2018-09-03T03:43:02.553Z,14.37
2018-09-03T03:45:31.640Z,14.37
2018-09-03T03:48:00.667Z,15.00
2018-09-03T03:50:29.726Z,14.00
2018-09-03T03:52:58.794Z,14.90
2018-09-03T03:55:27.842Z,12.53
2018-09-03T03:57:56.846Z,14.13
2018-09-03T04:00:25.922Z,15.37
2018-09-03T04:02:54.999Z,14.00
2018-09-03T04:05:24.014Z,18.13
2018-09-03T04:07:53.063Z,19.30
2018-09-03T04:10:22.145Z,13.10
2018-09-03T04:12:55.009Z,12.93
2018-09-03T04:15:24.377Z,14.30
2018-09-03T04:17:53.526Z,16.43
2018-09-03T04:20:22.578Z,20.77
2018-09-03T04:22:51.673Z,24.70
2018-09-03T04:25:20.666Z,27.53
2018-09-03T04:27:49.737Z,27.67
2018-09-03T04:30:19.257Z,26.07
2018-09-03T04:32:48.299Z,25.43
2018-09-03T04:35:17.382Z,27.50
2018-09-03T04:37:46.750Z,28.03
2018-09-03T04:40:15.775Z,32.00
2018-09-03T04:42:44.789Z,29.30
2018-09-03T04:45:13.854Z,30.70
2018-09-03T04:47:42.889Z,27.53
2018-09-03T04:50:11.942Z,27.63
2018-09-03T04:52:41.000Z,27.23
2018-09-03T04:55:10.113Z,26.70
2018-09-03T04:57:39.207Z,27.73
2018-09-03T05:00:08.614Z,27.93
2018-09-03T05:02:37.731Z,26.53
2018-09-03T05:05:06.796Z,28.37
2018-09-03T05:07:35.850Z,28.60
2018-09-03T05:10:05.025Z,29.57
2018-09-03T05:12:34.386Z,27.60
2018-09-03T05:15:03.166Z,27.07
2018-09-03T05:17:32.246Z,26.37
2018-09-03T05:20:01.271Z,24.87
2018-09-03T05:22:30.327Z,26.57
2018-09-03T05:24:59.379Z,26.73
2018-09-03T05:27:28.398Z,24.83
2018-09-03T05:29:57.501Z,26.63
2018-09-03T05:32:26.541Z,27.90
2018-09-03T05:34:55.570Z,30.67
2018-09-03T05:37:24.942Z,26.73
2018-09-03T05:39:53.958Z,28.57
2018-09-03T05:42:22.994Z,24.17
2018-09-03T05:44:52.084Z,25.80
2018-09-03T05:47:21.128Z,25.50
2018-09-03T05:49:50.191Z,26.80
2018-09-03T05:52:19.201Z,23.10
2018-09-03T05:54:48.269Z,26.10
2018-09-03T05:57:17.267Z,27.80
2018-09-03T05:59:46.321Z,29.33
2018-09-03T06:02:15.334Z,28.17
2018-09-03T06:04:44.404Z,27.20
2018-09-03T06:07:13.472Z,30.10
2018-09-03T06:09:42.550Z,25.90
2018-09-03T06:12:11.553Z,26.07
2018-09-03T06:14:40.804Z,31.77
2018-09-03T06:17:09.806Z,26.23
2018-09-03T06:19:38.861Z,29.30
2018-09-03T06:22:07.959Z,32.80
2018-09-03T06:24:36.982Z,26.87
2018-09-03T06:27:06.012Z,29.67
2018-09-03T06:29:35.065Z,26.77
2018-09-03T06:32:04.118Z,29.27
2018-09-03T06:34:33.171Z,29.20
2018-09-03T06:37:02.191Z,30.10
2018-09-03T06:39:31.218Z,23.57
2018-09-03T06:42:00.326Z,28.50
2018-09-03T06:44:29.462Z,29.77
2018-09-03T06:46:58.458Z,32.10
2018-09-03T06:49:27.527Z,24.33
2018-09-03T06:51:56.547Z,22.27
2018-09-03T06:54:25.623Z,26.30
2018-09-03T06:56:54.634Z,27.77
2018-09-03T06:59:23.750Z,20.30
2018-09-03T07:01:52.794Z,21.37
2018-09-03T07:04:21.846Z,21.10
2018-09-03T07:06:50.996Z,20.90
2018-09-03T07:09:19.986Z,21.27
2018-09-03T07:11:49.030Z,18.70
2018-09-03T07:14:18.069Z,19.67
2018-09-03T07:16:47.213Z,24.43
2018-09-03T07:19:16.514Z,19.57
2018-09-03T07:21:45.547Z,19.03
2018-09-03T07:24:14.565Z,21.77
2018-09-03T07:26:43.966Z,20.27
2018-09-03T07:29:12.998Z,19.00
2018-09-03T07:31:42.022Z,19.60
2018-09-03T07:34:11.082Z,17.97
2018-09-03T07:36:40.110Z,20.63
2018-09-03T07:39:09.441Z,19.63
2018-09-03T07:41:38.510Z,18.80
2018-09-03T07:44:07.619Z,19.87
2018-09-03T07:46:36.670Z,22.40
2018-09-03T07:49:05.693Z,18.10
2018-09-03T07:51:34.755Z,22.03
2018-09-03T07:54:03.818Z,20.23
2018-09-03T07:56:32.882Z,19.40
2018-09-03T07:59:01.941Z,19.20
2018-09-03T08:01:30.973Z,18.30
2018-09-03T08:04:00.019Z,20.33
2018-09-03T08:06:29.054Z,17.67
2018-09-03T08:08:58.115Z,16.70
2018-09-03T08:11:27.214Z,18.30
2018-09-03T08:13:56.238Z,16.13
2018-09-03T08:16:25.562Z,16.90
2018-09-03T08:18:54.631Z,17.13
2018-09-03T08:21:23.655Z,19.03
2018-09-03T08:23:52.988Z,16.13
2018-09-03T08:26:22.841Z,15.67
2018-09-03T08:28:51.863Z,15.23
2018-09-03T08:31:21.062Z,14.30
2018-09-03T08:33:50.114Z,14.13
2018-09-03T08:36:19.143Z,14.13
2018-09-03T08:38:48.209Z,14.70
2018-09-03T08:41:17.295Z,15.50
2018-09-03T08:43:46.302Z,16.23
2018-09-03T08:46:15.405Z,13.87
2018-09-03T08:48:44.456Z,13.27
2018-09-03T08:51:13.658Z,14.53
2018-09-03T08:53:42.805Z,14.07
2018-09-03T08:56:11.942Z,13.40
2018-09-03T08:58:40.999Z,14.10
2018-09-03T09:01:10.489Z,12.07
2018-09-03T09:03:40.419Z,12.70
2018-09-03T09:06:09.862Z,13.10
2018-09-03T09:08:38.962Z,13.50
2018-09-03T09:11:08.758Z,11.97
2018-09-03T09:13:37.831Z,12.13
2018-09-03T09:16:06.864Z,12.07
2018-09-03T09:18:35.935Z,10.17
2018-09-03T09:21:04.978Z,11.13
2018-09-03T09:23:33.990Z,11.60
2018-09-03T09:26:03.054Z,11.80
2018-09-03T09:28:32.058Z,11.50
2018-09-03T09:31:01.113Z,13.30
2018-09-03T09:33:30.180Z,13.80
2018-09-03T09:35:59.209Z,11.97
2018-09-03T09:38:28.259Z,10.50
2018-09-03T09:40:57.346Z,10.53
2018-09-03T09:43:26.510Z,9.93
2018-09-03T09:45:55.555Z,9.67
2018-09-03T09:48:24.634Z,11.07
2018-09-03T09:50:53.787Z,10.73
2018-09-03T09:53:22.825Z,10.03
2018-09-03T09:55:51.849Z,11.20
2018-09-03T09:58:21.277Z,8.80
2018-09-03T10:00:55.698Z,8.87
2018-09-03T10:03:24.742Z,9.87
2018-09-03T10:05:53.790Z,8.73
2018-09-03T10:08:22.807Z,9.00
2018-09-03T10:10:51.818Z,8.33
2018-09-03T10:13:20.867Z,9.30
2018-09-03T10:15:49.897Z,8.70
2018-09-03T10:18:19.035Z,8.63
2018-09-03T10:20:48.101Z,8.40
2018-09-03T10:23:17.764Z,8.37
2018-09-03T10:25:46.806Z,8.77
2018-09-03T10:28:15.866Z,9.07
2018-09-03T10:30:44.966Z,9.27
2018-09-03T10:33:14.001Z,10.00
2018-09-03T10:35:43.027Z,8.90
2018-09-03T10:38:12.123Z,10.23
2018-09-03T10:40:41.067Z,9.20
2018-09-03T10:43:10.154Z,8.90
2018-09-03T10:45:43.726Z,9.03
2018-09-03T10:48:14.326Z,9.30
2018-09-03T10:50:43.419Z,9.03
2018-09-03T10:53:12.424Z,8.30
2018-09-03T10:55:41.799Z,11.60
2018-09-03T10:58:11.666Z,9.80
2018-09-03T11:00:41.059Z,8.83
2018-09-03T11:03:10.135Z,9.13
2018-09-03T11:05:39.152Z,9.30
2018-09-03T11:08:08.234Z,9.97
2018-09-03T11:10:37.425Z,9.33
2018-09-03T11:13:06.558Z,9.00
2018-09-03T11:15:35.566Z,10.03
2018-09-03T11:18:04.627Z,8.50
2018-09-03T11:20:33.674Z,8.00
2018-09-03T11:23:02.811Z,8.30
2018-09-03T11:25:33.007Z,8.70
2018-09-03T11:28:02.497Z,8.80
2018-09-03T11:30:31.579Z,8.90
2018-09-03T11:33:02.762Z,9.13
2018-09-03T11:35:31.786Z,8.03
2018-09-03T11:38:00.959Z,8.90
2018-09-03T11:40:29.994Z,10.17
2018-09-03T11:42:59.027Z,8.20
2018-09-03T11:45:28.035Z,7.90
2018-09-03T11:47:57.139Z,9.07
2018-09-03T11:50:26.141Z,12.17
2018-09-03T11:52:55.162Z,8.00
2018-09-03T11:55:24.521Z,7.40
2018-09-03T11:57:53.590Z,8.00
2018-09-03T12:00:25.181Z,7.13
2018-09-03T12:02:54.265Z,8.23
2018-09-03T12:05:23.278Z,10.00
2018-09-03T12:07:52.669Z,7.93
2018-09-03T12:10:21.705Z,11.50
2018-09-03T12:12:50.718Z,8.03
2018-09-03T12:15:25.386Z,7.70
2018-09-03T12:17:54.418Z,8.00
2018-09-03T12:20:23.479Z,9.30
2018-09-03T12:22:52.577Z,8.13
2018-09-03T12:25:21.590Z,8.33
2018-09-03T12:27:50.642Z,8.30
2018-09-03T12:30:19.687Z,10.20
2018-09-03T12:32:48.757Z,7.73
2018-09-03T12:35:18.137Z,8.10
2018-09-03T12:37:47.233Z,7.90
2018-09-03T12:40:16.263Z,7.23
2018-09-03T12:42:45.701Z,7.73
2018-09-03T12:45:14.701Z,7.10
2018-09-03T12:47:43.741Z,7.57
2018-09-03T12:50:12.852Z,7.10
2018-09-03T12:52:41.826Z,7.37
2018-09-03T12:55:10.823Z,7.23
2018-09-03T12:57:39.870Z,6.67
2018-09-03T13:00:11.270Z,6.67
2018-09-03T13:02:40.951Z,6.57
2018-09-03T13:05:12.381Z,7.27
2018-09-03T13:07:41.540Z,6.83
2018-09-03T13:10:10.566Z,7.70
2018-09-03T13:12:39.727Z,8.43
2018-09-03T13:15:08.791Z,6.47
2018-09-03T13:17:37.827Z,6.37
2018-09-03T13:20:06.919Z,5.77
2018-09-03T13:22:36.027Z,7.00
2018-09-03T13:25:05.130Z,13.50
2018-09-03T13:27:34.184Z,6.23
2018-09-03T13:30:03.203Z,5.83
2018-09-03T13:32:32.260Z,6.23
2018-09-03T13:35:01.306Z,5.97
2018-09-03T13:37:30.342Z,6.63
2018-09-03T13:39:59.386Z,6.43
2018-09-03T13:42:28.613Z,5.57
2018-09-03T13:44:57.682Z,4.70
2018-09-03T13:47:26.816Z,4.60
2018-09-03T13:49:55.826Z,5.73
2018-09-03T13:52:24.878Z,8.40
2018-09-03T13:54:53.976Z,6.23
2018-09-03T13:57:23.084Z,5.70
2018-09-03T13:59:52.116Z,5.30
2018-09-03T14:02:21.187Z,4.10
2018-09-03T14:04:50.502Z,4.90
2018-09-03T14:07:19.570Z,4.40
2018-09-03T14:09:48.655Z,3.80
2018-09-03T14:12:17.755Z,3.97
2018-09-03T14:14:46.870Z,3.50
2018-09-03T14:17:15.910Z,3.90
2018-09-03T14:19:44.975Z,8.23
2018-09-03T14:22:14.073Z,8.13
2018-09-03T14:24:43.107Z,3.37
2018-09-03T14:27:12.118Z,3.83
2018-09-03T14:29:41.167Z,3.40
2018-09-03T14:32:10.186Z,3.73
2018-09-03T14:34:39.197Z,3.90
2018-09-03T14:37:08.546Z,42.83
2018-09-03T14:39:37.466Z,4.50
2018-09-03T14:42:06.538Z,6.20
2018-09-03T14:44:35.636Z,4.70
2018-09-03T14:47:04.705Z,29.00
2018-09-03T14:49:33.836Z,4.63
2018-09-03T14:52:02.868Z,4.93
2018-09-03T14:54:31.917Z,13.80
2018-09-03T14:57:00.995Z,10.80
2018-09-03T14:59:30.022Z,7.90
2018-09-03T15:01:59.043Z,4.47
2018-09-03T15:04:28.270Z,8.80
2018-09-03T15:06:57.319Z,6.47
2018-09-03T15:09:28.305Z,8.77
2018-09-03T15:12:01.104Z,11.33
2018-09-03T15:14:53.199Z,7.20
2018-09-03T15:17:24.819Z,7.80
2018-09-03T15:19:53.799Z,8.70
2018-09-03T15:22:22.843Z,18.37
2018-09-03T15:24:51.867Z,6.47
2018-09-03T15:27:20.988Z,5.13
2018-09-03T15:29:50.062Z,4.63
2018-09-03T15:32:19.140Z,8.40
2018-09-03T15:34:48.319Z,4.07
2018-09-03T15:37:17.342Z,4.10
2018-09-03T15:39:46.501Z,4.27
2018-09-03T15:42:15.598Z,4.13
2018-09-03T15:44:44.604Z,4.30
2018-09-03T15:47:13.718Z,11.50
2018-09-03T15:49:42.751Z,12.43
2018-09-03T15:52:11.762Z,9.10
2018-09-03T15:54:40.802Z,5.00
2018-09-03T15:57:09.875Z,9.10
2018-09-03T15:59:38.889Z,9.53
2018-09-03T16:02:08.072Z,12.13
2018-09-03T16:04:37.131Z,6.00
2018-09-03T16:07:06.146Z,4.20
2018-09-03T16:09:35.171Z,5.17
2018-09-03T16:12:04.247Z,6.83
2018-09-03T16:14:33.379Z,5.03
2018-09-03T16:17:02.419Z,6.97
2018-09-03T16:19:31.503Z,6.80
2018-09-03T16:22:00.631Z,6.40
2018-09-03T16:24:29.936Z,5.60
2018-09-03T16:26:58.994Z,6.57
2018-09-03T16:29:28.412Z,7.30
2018-09-03T16:31:57.441Z,8.23
2018-09-03T16:34:26.560Z,6.83
2018-09-03T16:36:55.583Z,4.67
2018-09-03T16:39:24.762Z,10.43
2018-09-03T16:41:54.186Z,13.43
2018-09-03T16:44:23.207Z,9.10
2018-09-03T16:46:52.307Z,10.23
2018-09-03T16:49:21.352Z,6.47
2018-09-03T16:51:50.500Z,5.97
2018-09-03T16:54:19.511Z,16.60
2018-09-03T16:56:48.578Z,7.90
2018-09-03T16:59:17.659Z,6.60
2018-09-03T17:01:46.675Z,4.40
2018-09-03T17:04:15.779Z,7.83
2018-09-03T17:06:44.820Z,5.60
2018-09-03T17:09:13.821Z,6.60
2018-09-03T17:11:42.863Z,5.20
2018-09-03T17:14:11.886Z,5.03
2018-09-03T17:16:41.258Z,4.73
2018-09-03T17:19:10.281Z,4.23
2018-09-03T17:21:39.283Z,4.87
2018-09-03T17:24:08.498Z,4.83
2018-09-03T17:26:38.252Z,7.43
2018-09-03T17:29:07.250Z,4.80
2018-09-03T17:31:36.339Z,4.70
2018-09-03T17:34:05.391Z,4.13
2018-09-03T17:36:34.435Z,5.00
2018-09-03T17:39:03.718Z,4.60
2018-09-03T17:41:32.773Z,3.93
2018-09-03T17:44:01.798Z,4.10
2018-09-03T17:46:30.795Z,4.93
2018-09-03T17:48:59.826Z,5.53
2018-09-03T17:51:28.954Z,4.93
2018-09-03T17:53:57.986Z,5.87
2018-09-03T17:56:27.018Z,3.90
2018-09-03T17:58:56.146Z,6.00
2018-09-03T18:01:25.153Z,3.60
2018-09-03T18:03:54.289Z,3.63
2018-09-03T18:06:23.654Z,3.77
2018-09-03T18:08:52.670Z,3.20
2018-09-03T18:11:21.669Z,3.67
2018-09-03T18:13:50.692Z,3.67
2018-09-03T18:16:19.790Z,4.07
2018-09-03T18:18:48.794Z,3.87
2018-09-03T18:21:17.858Z,4.50
2018-09-03T18:23:46.921Z,5.93
2018-09-03T18:26:15.982Z,4.43
2018-09-03T18:28:45.042Z,8.37
2018-09-03T18:31:14.370Z,3.83
2018-09-03T18:33:43.505Z,6.40
2018-09-03T18:36:12.810Z,6.20
2018-09-03T18:38:41.800Z,6.00
2018-09-03T18:41:10.862Z,4.73
2018-09-03T18:43:39.877Z,6.37
2018-09-03T18:46:08.897Z,4.87
2018-09-03T18:48:37.924Z,5.70
2018-09-03T18:51:06.984Z,5.30
2018-09-03T18:53:36.081Z,4.70
2018-09-03T18:56:05.123Z,4.97
2018-09-03T18:58:34.115Z,4.53
2018-09-03T19:01:03.210Z,5.50
2018-09-03T19:03:32.212Z,4.70
2018-09-03T19:06:01.284Z,4.50
2018-09-03T19:08:30.305Z,4.50
2018-09-03T19:10:59.302Z,4.90
2018-09-03T19:13:28.378Z,5.07
2018-09-03T19:15:57.374Z,5.87
2018-09-03T19:18:26.378Z,5.53
2018-09-03T19:20:55.717Z,4.77
2018-09-03T19:23:24.734Z,5.87
2018-09-03T19:25:53.771Z,5.43
2018-09-03T19:28:22.834Z,6.10
2018-09-03T19:30:51.842Z,5.67
2018-09-03T19:33:21.207Z,5.47
2018-09-03T19:35:50.261Z,5.70
2018-09-03T19:38:19.290Z,8.57
2018-09-03T19:40:48.593Z,5.43
2018-09-03T19:43:17.613Z,5.00
2018-09-03T19:45:46.616Z,10.10
2018-09-03T19:48:15.646Z,4.57
2018-09-03T19:50:44.673Z,6.67
2018-09-03T19:53:13.797Z,5.83
2018-09-03T19:55:42.882Z,8.57
2018-09-03T19:58:11.894Z,5.43
2018-09-03T20:00:40.985Z,5.60
2018-09-03T20:03:10.174Z,5.00
2018-09-03T20:05:39.243Z,5.10
2018-09-03T20:08:08.291Z,9.20
2018-09-03T20:10:37.314Z,5.70
2018-09-03T20:13:06.353Z,5.57
2018-09-03T20:15:35.439Z,6.43
2018-09-03T20:18:04.538Z,6.97
2018-09-03T20:20:33.555Z,5.97
2018-09-03T20:23:02.602Z,5.70
2018-09-03T20:25:31.641Z,8.87
2018-09-03T20:28:00.638Z,6.30
2018-09-03T20:30:29.698Z,6.90
2018-09-03T20:32:58.677Z,7.00
2018-09-03T20:35:27.677Z,5.97
2018-09-03T20:37:56.739Z,6.97
2018-09-03T20:40:25.769Z,7.87
2018-09-03T20:42:54.791Z,6.07
2018-09-03T20:45:24.022Z,5.97
2018-09-03T20:47:53.162Z,6.10
2018-09-03T20:50:22.194Z,6.20
2018-09-03T20:52:51.355Z,5.83
2018-09-03T20:55:20.395Z,6.50
2018-09-03T20:57:49.447Z,6.67
2018-09-03T21:00:18.522Z,6.33
2018-09-03T21:02:47.535Z,7.40
2018-09-03T21:05:16.585Z,7.07
2018-09-03T21:07:45.583Z,7.23
2018-09-03T21:10:20.526Z,6.57
2018-09-03T21:12:54.986Z,7.10
2018-09-03T21:15:29.503Z,12.70
2018-09-03T21:18:04.186Z,7.00
2018-09-03T21:20:38.834Z,7.10
2018-09-03T21:23:13.579Z,7.20
2018-09-03T21:25:48.222Z,6.47
2018-09-03T21:28:22.695Z,6.37
2018-09-03T21:30:57.667Z,7.50
2018-09-03T21:33:32.227Z,6.83
2018-09-03T21:36:06.946Z,7.07
2018-09-03T21:38:41.466Z,7.20
2018-09-03T21:41:16.013Z,6.27
2018-09-03T21:43:50.618Z,7.60
2018-09-03T21:46:25.362Z,7.70
2018-09-03T21:48:59.990Z,6.70
2018-09-03T21:51:36.194Z,8.33
2018-09-03T21:54:10.723Z,6.50
2018-09-03T21:56:45.412Z,8.03
2018-09-03T21:59:20.136Z,8.20
2018-09-03T22:01:54.794Z,6.90
2018-09-03T22:04:29.482Z,8.07
2018-09-03T22:07:04.517Z,6.17
2018-09-03T22:09:39.185Z,6.97
2018-09-03T22:12:14.856Z,8.33
2018-09-03T22:14:49.540Z,6.53
2018-09-03T22:17:24.311Z,8.17
2018-09-03T22:19:59.765Z,6.83
2018-09-03T22:22:34.210Z,6.77
2018-09-03T22:25:08.963Z,6.00
2018-09-03T22:27:43.858Z,7.53
2018-09-03T22:30:18.896Z,7.63
2018-09-03T22:32:53.579Z,7.53
2018-09-03T22:35:28.875Z,8.80
2018-09-03T22:38:03.487Z,7.57
2018-09-03T22:40:38.540Z,7.07
2018-09-03T22:43:13.130Z,10.10
2018-09-03T22:45:47.935Z,7.37
2018-09-03T22:48:22.574Z,7.47
2018-09-03T22:50:57.174Z,6.97
2018-09-03T22:53:31.994Z,6.83
2018-09-03T22:56:06.618Z,7.53
2018-09-03T22:58:41.139Z,8.03
2018-09-03T23:01:16.151Z,6.97
2018-09-03T23:03:50.858Z,6.70
2018-09-03T23:06:25.792Z,6.93
2018-09-03T23:09:00.511Z,9.00
2018-09-03T23:11:35.302Z,8.70
2018-09-03T23:14:09.946Z,8.03
2018-09-03T23:16:44.630Z,6.17
2018-09-03T23:19:19.192Z,8.17
2018-09-03T23:21:53.787Z,6.90
2018-09-03T23:24:28.323Z,9.77
2018-09-03T23:27:02.910Z,7.00
2018-09-03T23:29:37.462Z,6.97
2018-09-03T23:32:12.249Z,7.47
2018-09-03T23:34:46.920Z,7.23
2018-09-03T23:37:21.411Z,10.50
2018-09-03T23:39:55.958Z,7.27
2018-09-03T23:42:30.558Z,7.90
2018-09-03T23:45:05.281Z,7.70
2018-09-03T23:47:39.950Z,6.63
2018-09-03T23:50:14.664Z,8.10
2018-09-03T23:52:49.403Z,7.67
2018-09-03T23:55:24.120Z,14.70
2018-09-03T23:57:58.643Z,15.27
